createdAt,value
2017-11-24T00:01:38.461Z,3.47
2017-11-24T00:04:05.093Z,4.87
2017-11-24T00:06:31.726Z,5.00
2017-11-24T00:08:58.397Z,3.50
2017-11-24T00:11:25.030Z,7.13
2017-11-24T00:13:51.697Z,3.00
2017-11-24T00:16:18.348Z,3.27
2017-11-24T00:18:44.997Z,4.97
2017-11-24T00:21:11.653Z,5.40
2017-11-24T00:23:38.341Z,3.40
2017-11-24T00:26:04.980Z,5.17
2017-11-24T00:28:31.928Z,3.60
2017-11-24T00:30:58.576Z,5.00
2017-11-24T00:33:25.237Z,3.90
2017-11-24T00:35:51.865Z,5.43
2017-11-24T00:38:18.492Z,4.70
2017-11-24T00:40:45.187Z,3.03
2017-11-24T00:43:11.918Z,4.37
2017-11-24T00:45:38.570Z,4.27
2017-11-24T00:48:05.197Z,4.93
2017-11-24T00:50:31.849Z,4.23
2017-11-24T00:52:58.503Z,5.10
2017-11-24T00:55:25.169Z,5.60
2017-11-24T00:57:51.797Z,4.13
2017-11-24T01:00:18.470Z,3.47
2017-11-24T01:02:45.108Z,3.13
2017-11-24T01:05:11.777Z,3.63
2017-11-24T01:07:38.429Z,3.47
2017-11-24T01:10:05.061Z,4.63
2017-11-24T01:12:31.723Z,3.13
2017-11-24T01:14:58.371Z,3.90
2017-11-24T01:17:25.030Z,3.63
2017-11-24T01:19:51.662Z,6.33
2017-11-24T01:22:18.308Z,3.67
2017-11-24T01:24:44.944Z,4.70
2017-11-24T01:27:11.590Z,5.33
2017-11-24T01:29:38.223Z,3.73
2017-11-24T01:32:04.877Z,3.43
2017-11-24T01:34:31.521Z,3.23
2017-11-24T01:36:58.153Z,3.10
2017-11-24T01:39:24.809Z,4.20
2017-11-24T01:41:51.442Z,6.83
2017-11-24T01:44:18.093Z,3.50
2017-11-24T01:46:44.731Z,4.73
2017-11-24T01:49:11.382Z,3.10
2017-11-24T01:51:38.014Z,3.10
2017-11-24T01:54:04.661Z,3.70
2017-11-24T01:56:31.300Z,4.27
2017-11-24T01:58:57.976Z,4.03
2017-11-24T02:01:24.609Z,4.73
2017-11-24T02:03:51.244Z,3.00
2017-11-24T02:06:17.890Z,2.77
2017-11-24T02:08:44.517Z,4.13
2017-11-24T02:11:11.249Z,4.50
2017-11-24T02:13:37.877Z,3.43
2017-11-24T02:16:04.550Z,3.13
2017-11-24T02:18:31.184Z,2.90
2017-11-24T02:20:57.837Z,4.03
2017-11-24T02:23:24.492Z,3.50
2017-11-24T02:25:51.150Z,5.13
2017-11-24T02:28:17.784Z,2.90
2017-11-24T02:30:44.414Z,3.77
2017-11-24T02:33:11.094Z,3.03
2017-11-24T02:35:37.732Z,3.20
2017-11-24T02:38:04.386Z,5.83
2017-11-24T02:40:31.027Z,2.20
2017-11-24T02:42:57.721Z,4.93
2017-11-24T02:45:24.461Z,4.20
2017-11-24T02:47:51.202Z,3.50
2017-11-24T02:50:17.850Z,3.63
2017-11-24T02:52:44.499Z,2.50
2017-11-24T02:55:11.160Z,3.50
2017-11-24T02:57:37.781Z,3.60
2017-11-24T03:00:04.437Z,5.10
2017-11-24T03:02:31.074Z,3.30
2017-11-24T03:04:58.185Z,3.47
2017-11-24T03:07:24.822Z,3.20
2017-11-24T03:09:51.478Z,3.70
2017-11-24T03:12:18.126Z,3.03
2017-11-24T03:14:44.775Z,4.17
2017-11-24T03:17:11.406Z,3.70
2017-11-24T03:19:38.061Z,2.93
2017-11-24T03:22:04.692Z,2.60
2017-11-24T03:24:31.338Z,3.00
2017-11-24T03:26:58.024Z,3.50
2017-11-24T03:29:24.657Z,2.60
2017-11-24T03:31:51.320Z,3.10
2017-11-24T03:34:17.976Z,2.40
2017-11-24T03:36:44.622Z,3.33
2017-11-24T03:39:11.253Z,2.90
2017-11-24T03:41:37.928Z,3.10
2017-11-24T03:44:04.561Z,3.03
2017-11-24T03:46:31.216Z,2.83
2017-11-24T03:48:57.861Z,3.73
2017-11-24T03:51:24.497Z,2.43
2017-11-24T03:53:51.165Z,3.33
2017-11-24T03:56:17.797Z,3.40
2017-11-24T03:58:44.445Z,3.57
2017-11-24T04:01:11.069Z,3.03
2017-11-24T04:03:37.716Z,2.67
2017-11-24T04:06:04.656Z,2.07
2017-11-24T04:08:31.393Z,2.37
2017-11-24T04:10:58.030Z,3.13
2017-11-24T04:13:24.695Z,3.17
2017-11-24T04:15:51.349Z,3.57
2017-11-24T04:18:17.979Z,4.00
2017-11-24T04:20:44.646Z,3.33
2017-11-24T04:23:11.281Z,3.10
2017-11-24T04:25:37.934Z,3.10
2017-11-24T04:28:04.569Z,3.07
2017-11-24T04:30:31.234Z,3.83
2017-11-24T04:32:57.874Z,3.00
2017-11-24T04:35:24.548Z,3.90
2017-11-24T04:37:51.179Z,3.80
2017-11-24T04:40:17.843Z,2.40
2017-11-24T04:42:44.485Z,3.57
2017-11-24T04:45:11.127Z,1.97
2017-11-24T04:47:37.778Z,2.10
2017-11-24T04:50:04.434Z,3.47
2017-11-24T04:52:31.124Z,2.33
2017-11-24T04:54:57.759Z,2.87
2017-11-24T04:57:24.500Z,2.23
2017-11-24T04:59:51.134Z,2.23
2017-11-24T05:02:17.790Z,2.70
2017-11-24T05:04:44.433Z,3.27
2017-11-24T05:07:11.065Z,2.10
2017-11-24T05:09:37.758Z,2.07
2017-11-24T05:12:04.413Z,2.60
2017-11-24T05:14:31.066Z,3.43
2017-11-24T05:16:57.706Z,2.30
2017-11-24T05:19:24.352Z,2.40
2017-11-24T05:21:51.009Z,2.20
2017-11-24T05:24:17.642Z,3.30
2017-11-24T05:26:44.297Z,2.50
2017-11-24T05:29:10.965Z,4.40
2017-11-24T05:31:37.613Z,2.93
2017-11-24T05:34:04.260Z,2.77
2017-11-24T05:36:30.929Z,2.70
2017-11-24T05:38:57.564Z,3.47
2017-11-24T05:41:24.210Z,2.17
2017-11-24T05:43:50.845Z,3.20
2017-11-24T05:46:17.503Z,2.93
2017-11-24T05:48:44.152Z,2.73
2017-11-24T05:51:10.785Z,2.80
2017-11-24T05:53:37.435Z,2.77
2017-11-24T05:56:04.130Z,2.30
2017-11-24T05:58:30.803Z,1.70
2017-11-24T06:00:57.521Z,2.20
2017-11-24T06:03:24.269Z,2.50
2017-11-24T06:05:50.900Z,2.87
2017-11-24T06:08:17.549Z,3.47
2017-11-24T06:10:44.177Z,2.70
2017-11-24T06:13:10.820Z,3.10
2017-11-24T06:15:37.529Z,1.70
2017-11-24T06:18:04.295Z,1.70
2017-11-24T06:20:30.931Z,1.87
2017-11-24T06:22:57.565Z,2.53
2017-11-24T06:25:24.215Z,2.43
2017-11-24T06:27:50.845Z,3.33
2017-11-24T06:30:17.537Z,2.00
2017-11-24T06:32:44.186Z,3.00
2017-11-24T06:35:10.833Z,2.70
2017-11-24T06:37:37.462Z,2.53
2017-11-24T06:40:04.125Z,3.77
2017-11-24T06:42:30.793Z,2.57
2017-11-24T06:44:57.443Z,1.70
2017-11-24T06:47:24.079Z,1.73
2017-11-24T06:49:50.739Z,2.57
2017-11-24T06:52:17.388Z,2.40
2017-11-24T06:54:44.041Z,2.47
2017-11-24T06:57:10.689Z,2.13
2017-11-24T06:59:37.342Z,2.00
2017-11-24T07:02:03.988Z,2.70
2017-11-24T07:04:30.649Z,2.30
2017-11-24T07:06:57.298Z,2.00
2017-11-24T07:09:23.929Z,2.17
2017-11-24T07:11:50.583Z,1.87
2017-11-24T07:14:17.226Z,2.53
2017-11-24T07:16:43.877Z,2.87
2017-11-24T07:19:10.545Z,2.87
2017-11-24T07:21:37.182Z,2.80
2017-11-24T07:24:03.833Z,3.00
2017-11-24T07:26:30.487Z,2.07
2017-11-24T07:28:57.150Z,2.03
2017-11-24T07:31:23.801Z,3.23
2017-11-24T07:33:50.476Z,3.60
2017-11-24T07:36:17.209Z,6.57
2017-11-24T07:38:43.866Z,5.53
2017-11-24T07:41:10.501Z,4.37
2017-11-24T07:43:37.133Z,3.20
2017-11-24T07:46:03.813Z,3.07
2017-11-24T07:48:30.482Z,3.27
2017-11-24T07:50:57.133Z,2.50
2017-11-24T07:53:23.865Z,2.70
2017-11-24T07:55:50.613Z,2.00
2017-11-24T07:58:17.240Z,2.77
2017-11-24T08:00:43.886Z,2.40
2017-11-24T08:03:10.526Z,1.90
2017-11-24T08:05:37.221Z,1.73
2017-11-24T08:08:03.863Z,1.70
2017-11-24T08:10:30.626Z,2.90
2017-11-24T08:12:57.273Z,3.37
2017-11-24T08:15:23.907Z,2.90
2017-11-24T08:17:50.572Z,2.83
2017-11-24T08:20:17.229Z,3.33
2017-11-24T08:22:43.880Z,2.20
2017-11-24T08:25:10.518Z,3.10
2017-11-24T08:27:37.183Z,3.30
2017-11-24T08:30:03.810Z,3.63
2017-11-24T08:32:30.456Z,2.27
2017-11-24T08:34:57.090Z,3.67
2017-11-24T08:37:23.738Z,5.93
2017-11-24T08:39:50.374Z,5.83
2017-11-24T08:42:17.025Z,2.80
2017-11-24T08:44:43.740Z,2.53
2017-11-24T08:47:16.141Z,3.67
2017-11-24T08:49:46.740Z,3.60
2017-11-24T08:52:13.378Z,9.83
2017-11-24T08:54:40.038Z,7.60
2017-11-24T08:57:06.716Z,7.30
2017-11-24T08:59:33.474Z,12.40
2017-11-24T09:02:00.122Z,9.53
2017-11-24T09:04:26.769Z,9.73
2017-11-24T09:06:53.409Z,7.60
2017-11-24T09:09:20.061Z,11.63
2017-11-24T09:11:46.693Z,7.40
2017-11-24T09:14:13.358Z,7.90
2017-11-24T09:16:40.011Z,10.60
2017-11-24T09:19:06.651Z,15.37
2017-11-24T09:21:33.305Z,12.87
2017-11-24T09:23:59.943Z,17.07
2017-11-24T09:26:26.593Z,14.30
2017-11-24T09:28:53.230Z,14.90
2017-11-24T09:31:19.939Z,13.43
2017-11-24T09:33:46.576Z,16.63
2017-11-24T09:36:13.236Z,14.50
2017-11-24T09:38:39.869Z,11.33
2017-11-24T09:41:06.529Z,17.63
2017-11-24T09:43:33.162Z,15.37
2017-11-24T09:45:59.838Z,12.87
2017-11-24T09:48:26.473Z,13.50
2017-11-24T09:50:53.110Z,11.30
2017-11-24T09:53:19.761Z,13.67
2017-11-24T09:55:46.394Z,13.23
2017-11-24T09:58:13.051Z,11.23
2017-11-24T10:00:39.750Z,13.57
2017-11-24T10:03:06.401Z,10.17
2017-11-24T10:05:33.039Z,16.97
2017-11-24T10:07:59.789Z,9.77
2017-11-24T10:10:26.428Z,12.60
2017-11-24T10:12:53.076Z,10.83
2017-11-24T10:15:19.705Z,15.77
2017-11-24T10:17:46.357Z,10.60
2017-11-24T10:20:12.990Z,13.40
2017-11-24T10:22:40.344Z,12.83
2017-11-24T10:25:07.064Z,12.00
2017-11-24T10:27:33.696Z,7.23
2017-11-24T10:30:00.370Z,14.30
2017-11-24T10:32:27.008Z,11.07
2017-11-24T10:34:53.667Z,11.63
2017-11-24T10:37:20.302Z,12.00
2017-11-24T10:39:46.957Z,14.77
2017-11-24T10:42:13.600Z,10.97
2017-11-24T10:44:40.287Z,13.83
2017-11-24T10:47:06.923Z,9.70
2017-11-24T10:49:33.691Z,9.87
2017-11-24T10:52:00.431Z,15.33
2017-11-24T10:54:27.081Z,10.03
2017-11-24T10:56:53.717Z,9.87
2017-11-24T10:59:20.386Z,9.17
2017-11-24T11:01:47.017Z,10.77
2017-11-24T11:04:13.649Z,11.17
2017-11-24T11:06:40.336Z,12.63
2017-11-24T11:09:06.984Z,12.80
2017-11-24T11:11:33.633Z,11.10
2017-11-24T11:14:00.260Z,9.87
2017-11-24T11:16:26.941Z,11.27
2017-11-24T11:18:53.589Z,11.73
2017-11-24T11:21:20.343Z,8.80
2017-11-24T11:23:46.985Z,12.47
2017-11-24T11:26:13.653Z,11.90
2017-11-24T11:28:40.295Z,10.47
2017-11-24T11:31:06.955Z,9.77
2017-11-24T11:33:33.597Z,11.93
2017-11-24T11:36:00.230Z,12.57
2017-11-24T11:38:26.902Z,7.70
2017-11-24T11:40:53.528Z,8.80
2017-11-24T11:43:20.173Z,9.57
2017-11-24T11:45:46.812Z,11.90
2017-11-24T11:48:13.498Z,9.07
2017-11-24T11:50:40.138Z,9.07
2017-11-24T11:53:06.814Z,9.27
2017-11-24T11:55:33.450Z,9.33
2017-11-24T11:58:00.102Z,8.73
2017-11-24T12:00:26.754Z,11.33
2017-11-24T12:02:53.390Z,9.67
2017-11-24T12:05:20.041Z,8.80
2017-11-24T12:07:46.681Z,7.83
2017-11-24T12:10:13.346Z,9.63
2017-11-24T12:12:39.992Z,10.00
2017-11-24T12:15:06.641Z,8.77
2017-11-24T12:17:33.305Z,9.77
2017-11-24T12:20:00.793Z,8.30
2017-11-24T12:22:27.427Z,8.40
2017-11-24T12:24:54.104Z,10.53
2017-11-24T12:27:20.737Z,8.13
2017-11-24T12:29:47.371Z,6.53
2017-11-24T12:32:14.033Z,9.60
2017-11-24T12:34:40.674Z,7.73
2017-11-24T12:37:07.346Z,10.40
2017-11-24T12:39:33.977Z,9.37
2017-11-24T12:42:00.630Z,9.87
2017-11-24T12:44:27.262Z,7.37
2017-11-24T12:46:53.914Z,11.00
2017-11-24T12:49:20.549Z,10.47
2017-11-24T12:51:47.197Z,6.40
2017-11-24T12:54:13.824Z,6.70
2017-11-24T12:56:40.477Z,8.50
2017-11-24T12:59:07.104Z,6.70
2017-11-24T13:01:33.878Z,13.37
2017-11-24T13:04:00.513Z,7.97
2017-11-24T13:06:27.145Z,7.30
2017-11-24T13:08:53.888Z,9.83
2017-11-24T13:11:20.521Z,8.03
2017-11-24T13:13:47.168Z,8.67
2017-11-24T13:16:13.797Z,7.40
2017-11-24T13:18:40.500Z,7.23
2017-11-24T13:21:07.141Z,8.53
2017-11-24T13:23:33.904Z,7.50
2017-11-24T13:26:00.648Z,4.83
2017-11-24T13:28:27.354Z,8.77
2017-11-24T13:30:53.990Z,7.80
2017-11-24T13:33:20.649Z,8.43
2017-11-24T13:35:47.356Z,6.43
2017-11-24T13:38:14.013Z,8.80
2017-11-24T13:40:40.763Z,6.73
2017-11-24T13:43:07.394Z,7.57
2017-11-24T13:45:34.049Z,7.60
2017-11-24T13:48:00.709Z,7.93
2017-11-24T13:50:27.357Z,5.30
2017-11-24T13:52:53.990Z,6.20
2017-11-24T13:55:20.673Z,8.90
2017-11-24T13:57:47.308Z,6.30
2017-11-24T14:00:13.963Z,7.73
2017-11-24T14:02:40.600Z,6.90
2017-11-24T14:05:07.252Z,7.30
2017-11-24T14:07:33.885Z,6.73
2017-11-24T14:10:00.537Z,6.47
2017-11-24T14:12:27.225Z,8.80
2017-11-24T14:14:53.877Z,7.53
2017-11-24T14:17:20.526Z,7.17
2017-11-24T14:19:47.156Z,5.77
2017-11-24T14:22:13.825Z,7.07
2017-11-24T14:24:40.456Z,7.23
2017-11-24T14:27:07.110Z,7.00
2017-11-24T14:29:33.741Z,6.20
2017-11-24T14:32:00.389Z,6.70
2017-11-24T14:34:27.023Z,7.13
2017-11-24T14:36:53.733Z,8.27
2017-11-24T14:39:20.381Z,5.73
2017-11-24T14:41:47.134Z,5.70
2017-11-24T14:44:13.792Z,7.07
2017-11-24T14:46:40.541Z,7.90
2017-11-24T14:49:07.189Z,6.13
2017-11-24T14:51:33.826Z,4.93
2017-11-24T14:54:00.474Z,7.63
2017-11-24T14:56:27.250Z,6.67
2017-11-24T14:58:53.993Z,5.20
2017-11-24T15:01:20.621Z,5.57
2017-11-24T15:03:47.269Z,4.77
2017-11-24T15:06:13.902Z,7.00
2017-11-24T15:08:40.558Z,5.13
2017-11-24T15:11:07.190Z,6.50
2017-11-24T15:13:33.912Z,6.60
2017-11-24T15:16:00.653Z,5.50
2017-11-24T15:18:27.309Z,6.13
2017-11-24T15:20:54.061Z,8.60
2017-11-24T15:23:20.693Z,4.90
2017-11-24T15:25:47.341Z,4.97
2017-11-24T15:28:13.973Z,5.60
2017-11-24T15:30:40.629Z,5.83
2017-11-24T15:33:07.262Z,7.33
2017-11-24T15:35:33.913Z,5.10
2017-11-24T15:38:00.545Z,7.10
2017-11-24T15:40:27.278Z,5.77
2017-11-24T15:42:53.909Z,6.63
2017-11-24T15:45:20.569Z,6.10
2017-11-24T15:47:47.201Z,5.00
2017-11-24T15:50:13.853Z,5.07
2017-11-24T15:52:40.513Z,5.90
2017-11-24T15:55:07.268Z,6.80
2017-11-24T15:57:33.897Z,5.17
2017-11-24T16:00:00.574Z,5.40
2017-11-24T16:02:27.230Z,4.83
2017-11-24T16:04:53.981Z,5.37
2017-11-24T16:07:20.613Z,5.87
2017-11-24T16:09:47.292Z,4.13
2017-11-24T16:12:13.950Z,7.37
2017-11-24T16:14:40.617Z,3.13
2017-11-24T16:17:07.335Z,3.13
2017-11-24T16:19:33.966Z,5.93
2017-11-24T16:22:00.614Z,4.87
2017-11-24T16:24:27.253Z,5.57
2017-11-24T16:26:53.911Z,4.83
2017-11-24T16:29:20.553Z,5.10
2017-11-24T16:31:47.213Z,5.50
2017-11-24T16:34:13.861Z,4.83
2017-11-24T16:36:40.558Z,5.93
2017-11-24T16:39:07.294Z,3.00
2017-11-24T16:41:33.944Z,3.57
2017-11-24T16:44:00.574Z,4.43
2017-11-24T16:46:27.293Z,4.37
2017-11-24T16:48:53.934Z,5.30
2017-11-24T16:51:20.593Z,3.77
2017-11-24T16:53:47.310Z,4.67
2017-11-24T16:56:14.065Z,4.33
2017-11-24T16:58:40.724Z,3.63
2017-11-24T17:01:07.374Z,3.43
2017-11-24T17:03:34.000Z,4.97
2017-11-24T17:06:00.668Z,3.60
2017-11-24T17:08:27.327Z,5.43
2017-11-24T17:10:54.065Z,4.90
2017-11-24T17:13:20.697Z,5.60
2017-11-24T17:15:47.370Z,6.23
2017-11-24T17:18:14.002Z,3.10
2017-11-24T17:20:40.641Z,4.60
2017-11-24T17:23:07.293Z,3.90
2017-11-24T17:25:33.921Z,4.60
2017-11-24T17:28:00.620Z,3.10
2017-11-24T17:30:27.277Z,3.13
2017-11-24T17:32:53.925Z,6.53
2017-11-24T17:35:20.576Z,3.87
2017-11-24T17:37:47.326Z,5.67
2017-11-24T17:40:13.957Z,6.10
2017-11-24T17:42:40.612Z,7.27
2017-11-24T17:45:07.250Z,3.77
2017-11-24T17:47:33.885Z,4.97
2017-11-24T17:50:00.541Z,3.83
2017-11-24T17:52:27.226Z,4.40
2017-11-24T17:54:53.877Z,4.30
2017-11-24T17:57:20.538Z,2.67
2017-11-24T17:59:47.210Z,5.30
2017-11-24T18:02:13.934Z,3.47
2017-11-24T18:04:40.590Z,3.20
2017-11-24T18:07:07.222Z,3.90
2017-11-24T18:09:33.902Z,4.60
2017-11-24T18:12:00.545Z,4.13
2017-11-24T18:14:27.186Z,4.27
2017-11-24T18:16:53.935Z,3.30
2017-11-24T18:19:20.585Z,4.00
2017-11-24T18:21:47.341Z,7.60
2017-11-24T18:24:13.981Z,4.60
2017-11-24T18:26:40.628Z,6.73
2017-11-24T18:29:07.290Z,6.73
2017-11-24T18:31:33.946Z,2.73
2017-11-24T18:34:00.589Z,2.90
2017-11-24T18:36:27.342Z,4.47
2017-11-24T18:38:53.974Z,4.20
2017-11-24T18:41:20.638Z,4.33
2017-11-24T18:43:47.277Z,3.53
2017-11-24T18:46:13.933Z,3.83
2017-11-24T18:48:40.566Z,3.70
2017-11-24T18:51:07.258Z,3.40
2017-11-24T18:53:33.910Z,8.37
2017-11-24T18:56:00.544Z,2.73
2017-11-24T18:58:27.296Z,4.23
2017-11-24T19:00:53.929Z,5.17
2017-11-24T19:03:20.634Z,3.50
2017-11-24T19:05:47.266Z,3.50
2017-11-24T19:08:13.921Z,5.37
2017-11-24T19:10:40.555Z,4.73
2017-11-24T19:13:07.202Z,4.87
2017-11-24T19:15:33.837Z,6.60
2017-11-24T19:18:00.489Z,3.70
2017-11-24T19:20:27.157Z,2.97
2017-11-24T19:22:53.791Z,4.57
2017-11-24T19:25:20.454Z,3.53
2017-11-24T19:27:47.085Z,3.90
2017-11-24T19:30:13.737Z,4.00
2017-11-24T19:32:40.374Z,5.13
2017-11-24T19:35:07.026Z,4.20
2017-11-24T19:37:33.657Z,4.73
2017-11-24T19:40:00.344Z,3.37
2017-11-24T19:42:26.954Z,6.83
2017-11-24T19:44:53.610Z,3.67
2017-11-24T19:47:20.247Z,3.13
2017-11-24T19:49:46.902Z,5.97
2017-11-24T19:52:13.534Z,3.17
2017-11-24T19:54:40.262Z,3.60
2017-11-24T19:57:06.893Z,2.93
2017-11-24T19:59:33.570Z,4.27
2017-11-24T20:02:00.418Z,4.53
2017-11-24T20:04:27.091Z,3.80
2017-11-24T20:06:53.762Z,2.77
2017-11-24T20:09:20.473Z,2.90
2017-11-24T20:11:47.221Z,3.83
2017-11-24T20:14:13.862Z,3.17
2017-11-24T20:16:40.508Z,2.77
2017-11-24T20:19:07.149Z,2.87
2017-11-24T20:21:33.830Z,4.27
2017-11-24T20:24:00.461Z,3.13
2017-11-24T20:26:27.126Z,2.90
2017-11-24T20:28:53.773Z,3.00
2017-11-24T20:31:20.406Z,3.47
2017-11-24T20:33:47.077Z,3.37
2017-11-24T20:36:13.729Z,3.10
2017-11-24T20:38:40.477Z,2.43
2017-11-24T20:41:07.129Z,2.03
2017-11-24T20:43:33.837Z,3.07
2017-11-24T20:46:00.538Z,3.70
2017-11-24T20:48:27.285Z,2.53
2017-11-24T20:50:53.917Z,3.40
2017-11-24T20:53:20.575Z,3.50
2017-11-24T20:55:47.205Z,4.10
2017-11-24T20:58:13.839Z,4.13
2017-11-24T21:00:40.514Z,4.00
2017-11-24T21:03:07.201Z,2.87
2017-11-24T21:05:33.878Z,3.50
2017-11-24T21:08:00.589Z,2.63
2017-11-24T21:10:27.255Z,4.90
2017-11-24T21:12:53.885Z,3.33
2017-11-24T21:15:20.534Z,2.53
2017-11-24T21:17:47.167Z,2.77
2017-11-24T21:20:13.829Z,2.83
2017-11-24T21:22:40.490Z,3.63
2017-11-24T21:25:07.121Z,2.60
2017-11-24T21:27:33.788Z,3.70
2017-11-24T21:30:00.422Z,3.30
2017-11-24T21:32:27.077Z,3.07
2017-11-24T21:34:53.744Z,2.90
2017-11-24T21:37:20.402Z,3.07
2017-11-24T21:39:47.041Z,3.80
2017-11-24T21:42:13.698Z,3.20
2017-11-24T21:44:40.344Z,3.87
2017-11-24T21:47:06.995Z,3.13
2017-11-24T21:49:33.626Z,4.47
2017-11-24T21:52:00.282Z,2.53
2017-11-24T21:54:26.917Z,3.07
2017-11-24T21:56:53.556Z,2.97
2017-11-24T21:59:20.213Z,3.13
2017-11-24T22:01:46.850Z,5.20
2017-11-24T22:04:13.554Z,2.90
2017-11-24T22:06:40.185Z,3.47
2017-11-24T22:09:06.833Z,3.60
2017-11-24T22:11:33.461Z,5.13
2017-11-24T22:14:00.113Z,2.90
2017-11-24T22:16:26.806Z,3.40
2017-11-24T22:18:53.557Z,5.80
2017-11-24T22:21:20.210Z,4.43
2017-11-24T22:23:46.869Z,3.00
2017-11-24T22:26:13.502Z,3.13
2017-11-24T22:28:40.133Z,3.60
2017-11-24T22:31:06.783Z,4.93
2017-11-24T22:33:33.413Z,3.93
2017-11-24T22:36:00.135Z,3.70
2017-11-24T22:38:26.769Z,3.27
2017-11-24T22:40:53.422Z,2.83
2017-11-24T22:43:20.062Z,3.90
2017-11-24T22:45:46.716Z,6.70
2017-11-24T22:48:13.574Z,3.60
2017-11-24T22:50:40.226Z,2.90
2017-11-24T22:53:06.860Z,3.37
2017-11-24T22:55:33.527Z,3.57
2017-11-24T22:58:00.156Z,2.73
2017-11-24T23:00:26.791Z,3.67
2017-11-24T23:02:53.441Z,2.63
2017-11-24T23:05:20.129Z,3.70
2017-11-24T23:07:46.981Z,2.90
2017-11-24T23:10:13.625Z,4.37
2017-11-24T23:12:40.290Z,2.53
2017-11-24T23:15:06.923Z,5.77
2017-11-24T23:17:33.580Z,3.53
2017-11-24T23:20:00.237Z,4.60
2017-11-24T23:22:26.917Z,3.50
2017-11-24T23:24:53.545Z,4.30
2017-11-24T23:27:20.198Z,5.50
2017-11-24T23:29:46.944Z,3.83
2017-11-24T23:32:13.573Z,3.60
2017-11-24T23:34:40.345Z,5.37
2017-11-24T23:37:06.973Z,5.57
2017-11-24T23:39:33.630Z,3.30
2017-11-24T23:42:00.268Z,3.40
2017-11-24T23:44:26.920Z,3.27
2017-11-24T23:46:53.558Z,2.23
2017-11-24T23:49:20.254Z,3.60
2017-11-24T23:51:46.885Z,4.17
2017-11-24T23:54:13.549Z,3.70
2017-11-24T23:56:40.186Z,3.00
2017-11-24T23:59:06.854Z,2.83
